sensor_id;sensor_type;location;lat;lon;timestamp;P1;durP1;ratioP1;P2;durP2;ratioP2
2562;SDS011;1291;51.420;6.970;2022-10-26T00:00:38;3.83;;;1.67;;
2562;SDS011;1291;51.420;6.970;2022-10-26T00:03:03;3.03;;;1.80;;
2562;SDS011;1291;51.420;6.970;2022-10-26T00:05:31;3.45;;;1.58;;
2562;SDS011;1291;51.420;6.970;2022-10-26T00:07:57;4.93;;;1.48;;
2562;SDS011;1291;51.420;6.970;2022-10-26T00:10:28;5.80;;;1.75;;
2562;SDS011;1291;51.420;6.970;2022-10-26T00:12:57;2.38;;;1.48;;
2562;SDS011;1291;51.420;6.970;2022-10-26T00:15:22;2.75;;;1.33;;
2562;SDS011;1291;51.420;6.970;2022-10-26T00:17:48;4.93;;;1.33;;
2562;SDS011;1291;51.420;6.970;2022-10-26T00:20:14;2.22;;;1.40;;
2562;SDS011;1291;51.420;6.970;2022-10-26T00:22:40;4.57;;;1.52;;
2562;SDS011;1291;51.420;6.970;2022-10-26T00:25:05;2.58;;;1.48;;
2562;SDS011;1291;51.420;6.970;2022-10-26T00:27:31;5.50;;;1.77;;
2562;SDS011;1291;51.420;6.970;2022-10-26T00:30:01;2.40;;;1.50;;
2562;SDS011;1291;51.420;6.970;2022-10-26T00:32:28;2.47;;;1.55;;
2562;SDS011;1291;51.420;6.970;2022-10-26T00:34:53;6.35;;;1.73;;
2562;SDS011;1291;51.420;6.970;2022-10-26T00:37:19;3.05;;;1.50;;
2562;SDS011;1291;51.420;6.970;2022-10-26T00:39:44;5.90;;;1.90;;
2562;SDS011;1291;51.420;6.970;2022-10-26T00:42:11;4.72;;;1.55;;
2562;SDS011;1291;51.420;6.970;2022-10-26T00:47:17;1.38;;;1.17;;
2562;SDS011;1291;51.420;6.970;2022-10-26T00:49:53;3.55;;;1.77;;
2562;SDS011;1291;51.420;6.970;2022-10-26T00:52:20;5.53;;;1.38;;
2562;SDS011;1291;51.420;6.970;2022-10-26T00:54:46;2.97;;;1.40;;
2562;SDS011;1291;51.420;6.970;2022-10-26T00:57:13;4.57;;;1.23;;
2562;SDS011;1291;51.420;6.970;2022-10-26T00:59:43;5.18;;;1.50;;
2562;SDS011;1291;51.420;6.970;2022-10-26T01:02:10;3.83;;;1.45;;
2562;SDS011;1291;51.420;6.970;2022-10-26T01:04:36;3.20;;;1.52;;
2562;SDS011;1291;51.420;6.970;2022-10-26T01:07:02;4.65;;;1.92;;
2562;SDS011;1291;51.420;6.970;2022-10-26T01:09:29;3.90;;;1.85;;
2562;SDS011;1291;51.420;6.970;2022-10-26T01:11:56;4.40;;;1.40;;
2562;SDS011;1291;51.420;6.970;2022-10-26T01:14:21;2.95;;;1.40;;
2562;SDS011;1291;51.420;6.970;2022-10-26T01:22:02;3.85;;;1.67;;
2562;SDS011;1291;51.420;6.970;2022-10-26T01:24:38;4.57;;;1.38;;
2562;SDS011;1291;51.420;6.970;2022-10-26T01:27:35;4.32;;;1.50;;
2562;SDS011;1291;51.420;6.970;2022-10-26T01:38:25;5.78;;;1.35;;
2562;SDS011;1291;51.420;6.970;2022-10-26T01:40:59;2.92;;;1.60;;
2562;SDS011;1291;51.420;6.970;2022-10-26T01:43:38;4.47;;;1.30;;
2562;SDS011;1291;51.420;6.970;2022-10-26T01:46:07;5.85;;;1.95;;
2562;SDS011;1291;51.420;6.970;2022-10-26T01:48:35;4.00;;;1.55;;
2562;SDS011;1291;51.420;6.970;2022-10-26T01:51:02;6.15;;;1.65;;
2562;SDS011;1291;51.420;6.970;2022-10-26T01:53:30;4.32;;;1.67;;
2562;SDS011;1291;51.420;6.970;2022-10-26T01:55:55;4.15;;;1.40;;
2562;SDS011;1291;51.420;6.970;2022-10-26T02:03:49;2.63;;;1.35;;
2562;SDS011;1291;51.420;6.970;2022-10-26T02:09:38;2.90;;;1.30;;
2562;SDS011;1291;51.420;6.970;2022-10-26T02:15:56;3.40;;;1.55;;
2562;SDS011;1291;51.420;6.970;2022-10-26T02:20:52;1.65;;;1.17;;
2562;SDS011;1291;51.420;6.970;2022-10-26T02:23:22;5.90;;;1.63;;
2562;SDS011;1291;51.420;6.970;2022-10-26T02:25:53;5.53;;;1.65;;
2562;SDS011;1291;51.420;6.970;2022-10-26T02:28:23;3.38;;;1.80;;
2562;SDS011;1291;51.420;6.970;2022-10-26T02:30:59;1.98;;;1.20;;
2562;SDS011;1291;51.420;6.970;2022-10-26T02:33:27;2.17;;;1.33;;
2562;SDS011;1291;51.420;6.970;2022-10-26T02:36:00;4.68;;;1.30;;
2562;SDS011;1291;51.420;6.970;2022-10-26T02:38:29;2.33;;;1.42;;
2562;SDS011;1291;51.420;6.970;2022-10-26T02:41:00;11.10;;;2.25;;
2562;SDS011;1291;51.420;6.970;2022-10-26T02:43:28;3.55;;;1.40;;
2562;SDS011;1291;51.420;6.970;2022-10-26T02:46:01;2.90;;;1.10;;
2562;SDS011;1291;51.420;6.970;2022-10-26T02:48:33;1.92;;;1.05;;
2562;SDS011;1291;51.420;6.970;2022-10-26T02:51:04;3.10;;;1.45;;
2562;SDS011;1291;51.420;6.970;2022-10-26T02:56:35;2.50;;;1.25;;
2562;SDS011;1291;51.420;6.970;2022-10-26T02:59:24;2.15;;;1.27;;
2562;SDS011;1291;51.420;6.970;2022-10-26T03:01:55;2.90;;;1.10;;
2562;SDS011;1291;51.420;6.970;2022-10-26T03:04:31;3.72;;;1.52;;
2562;SDS011;1291;51.420;6.970;2022-10-26T03:06:58;3.00;;;1.55;;
2562;SDS011;1291;51.420;6.970;2022-10-26T03:09:24;1.92;;;1.30;;
2562;SDS011;1291;51.420;6.970;2022-10-26T03:11:50;4.28;;;1.35;;
2562;SDS011;1291;51.420;6.970;2022-10-26T03:14:16;5.57;;;1.33;;
2562;SDS011;1291;51.420;6.970;2022-10-26T03:16:41;4.50;;;1.27;;
2562;SDS011;1291;51.420;6.970;2022-10-26T03:19:07;7.70;;;1.90;;
2562;SDS011;1291;51.420;6.970;2022-10-26T03:21:32;5.75;;;1.42;;
2562;SDS011;1291;51.420;6.970;2022-10-26T03:23:58;3.47;;;1.15;;
2562;SDS011;1291;51.420;6.970;2022-10-26T03:26:24;4.47;;;1.40;;
2562;SDS011;1291;51.420;6.970;2022-10-26T03:28:49;5.25;;;1.58;;
2562;SDS011;1291;51.420;6.970;2022-10-26T03:31:14;2.88;;;1.10;;
2562;SDS011;1291;51.420;6.970;2022-10-26T03:33:40;3.78;;;1.83;;
2562;SDS011;1291;51.420;6.970;2022-10-26T03:36:06;9.05;;;1.58;;
2562;SDS011;1291;51.420;6.970;2022-10-26T03:38:32;3.20;;;1.35;;
2562;SDS011;1291;51.420;6.970;2022-10-26T03:40:57;4.03;;;1.60;;
2562;SDS011;1291;51.420;6.970;2022-10-26T03:43:23;8.55;;;1.40;;
2562;SDS011;1291;51.420;6.970;2022-10-26T03:45:49;3.70;;;1.23;;
2562;SDS011;1291;51.420;6.970;2022-10-26T03:48:14;6.15;;;1.35;;
2562;SDS011;1291;51.420;6.970;2022-10-26T03:50:40;3.10;;;1.40;;
2562;SDS011;1291;51.420;6.970;2022-10-26T03:53:05;1.55;;;1.05;;
2562;SDS011;1291;51.420;6.970;2022-10-26T03:55:34;1.58;;;1.27;;
2562;SDS011;1291;51.420;6.970;2022-10-26T03:58:00;2.63;;;1.20;;
2562;SDS011;1291;51.420;6.970;2022-10-26T04:00:25;5.55;;;1.30;;
2562;SDS011;1291;51.420;6.970;2022-10-26T04:02:57;3.75;;;1.70;;
2562;SDS011;1291;51.420;6.970;2022-10-26T04:05:24;3.22;;;1.67;;
2562;SDS011;1291;51.420;6.970;2022-10-26T04:07:55;4.90;;;1.20;;
2562;SDS011;1291;51.420;6.970;2022-10-26T04:10:22;6.18;;;1.73;;
2562;SDS011;1291;51.420;6.970;2022-10-26T04:12:48;4.63;;;1.50;;
2562;SDS011;1291;51.420;6.970;2022-10-26T04:15:14;3.17;;;1.27;;
2562;SDS011;1291;51.420;6.970;2022-10-26T04:17:40;3.80;;;1.40;;
2562;SDS011;1291;51.420;6.970;2022-10-26T04:20:09;4.18;;;1.27;;
2562;SDS011;1291;51.420;6.970;2022-10-26T04:22:35;1.90;;;1.20;;
2562;SDS011;1291;51.420;6.970;2022-10-26T04:25:04;3.50;;;1.15;;
2562;SDS011;1291;51.420;6.970;2022-10-26T04:27:30;4.20;;;1.23;;
2562;SDS011;1291;51.420;6.970;2022-10-26T04:29:56;4.97;;;1.20;;
2562;SDS011;1291;51.420;6.970;2022-10-26T04:32:22;4.43;;;1.63;;
2562;SDS011;1291;51.420;6.970;2022-10-26T04:34:47;6.15;;;1.60;;
2562;SDS011;1291;51.420;6.970;2022-10-26T04:37:13;3.35;;;1.30;;
2562;SDS011;1291;51.420;6.970;2022-10-26T04:39:42;3.85;;;1.20;;
2562;SDS011;1291;51.420;6.970;2022-10-26T04:42:07;4.78;;;1.42;;
2562;SDS011;1291;51.420;6.970;2022-10-26T04:44:32;2.47;;;1.10;;
2562;SDS011;1291;51.420;6.970;2022-10-26T04:46:58;2.78;;;1.10;;
2562;SDS011;1291;51.420;6.970;2022-10-26T04:49:23;2.22;;;1.25;;
2562;SDS011;1291;51.420;6.970;2022-10-26T04:51:49;3.72;;;1.35;;
2562;SDS011;1291;51.420;6.970;2022-10-26T04:54:14;3.55;;;1.20;;
2562;SDS011;1291;51.420;6.970;2022-10-26T04:56:39;1.33;;;1.10;;
2562;SDS011;1291;51.420;6.970;2022-10-26T04:59:05;4.15;;;1.20;;
2562;SDS011;1291;51.420;6.970;2022-10-26T05:01:30;5.75;;;1.17;;
2562;SDS011;1291;51.420;6.970;2022-10-26T05:03:56;1.98;;;1.33;;
2562;SDS011;1291;51.420;6.970;2022-10-26T05:06:22;2.92;;;1.30;;
2562;SDS011;1291;51.420;6.970;2022-10-26T05:08:47;6.68;;;1.45;;
2562;SDS011;1291;51.420;6.970;2022-10-26T05:11:13;2.00;;;1.30;;
2562;SDS011;1291;51.420;6.970;2022-10-26T05:13:39;5.50;;;1.30;;
2562;SDS011;1291;51.420;6.970;2022-10-26T05:16:05;2.50;;;1.35;;
2562;SDS011;1291;51.420;6.970;2022-10-26T05:18:31;4.85;;;1.27;;
2562;SDS011;1291;51.420;6.970;2022-10-26T05:20:56;2.38;;;1.05;;
2562;SDS011;1291;51.420;6.970;2022-10-26T05:23:22;2.95;;;1.10;;
2562;SDS011;1291;51.420;6.970;2022-10-26T05:25:48;4.20;;;1.20;;
2562;SDS011;1291;51.420;6.970;2022-10-26T05:28:14;3.38;;;1.80;;
2562;SDS011;1291;51.420;6.970;2022-10-26T05:30:40;3.28;;;1.20;;
2562;SDS011;1291;51.420;6.970;2022-10-26T05:33:07;2.08;;;1.00;;
2562;SDS011;1291;51.420;6.970;2022-10-26T05:35:34;4.22;;;1.50;;
2562;SDS011;1291;51.420;6.970;2022-10-26T05:38:13;2.72;;;1.15;;
2562;SDS011;1291;51.420;6.970;2022-10-26T05:40:50;2.33;;;1.15;;
2562;SDS011;1291;51.420;6.970;2022-10-26T05:43:16;5.40;;;1.50;;
2562;SDS011;1291;51.420;6.970;2022-10-26T05:45:42;2.83;;;1.15;;
2562;SDS011;1291;51.420;6.970;2022-10-26T05:48:08;3.90;;;1.15;;
2562;SDS011;1291;51.420;6.970;2022-10-26T05:50:33;3.33;;;1.27;;
2562;SDS011;1291;51.420;6.970;2022-10-26T05:52:59;2.92;;;1.13;;
2562;SDS011;1291;51.420;6.970;2022-10-26T05:55:25;3.63;;;1.15;;
2562;SDS011;1291;51.420;6.970;2022-10-26T05:57:50;6.30;;;1.40;;
2562;SDS011;1291;51.420;6.970;2022-10-26T06:05:17;3.60;;;1.05;;
2562;SDS011;1291;51.420;6.970;2022-10-26T06:07:46;3.72;;;1.08;;
2562;SDS011;1291;51.420;6.970;2022-10-26T06:10:12;4.55;;;1.15;;
2562;SDS011;1291;51.420;6.970;2022-10-26T06:12:38;3.85;;;1.20;;
2562;SDS011;1291;51.420;6.970;2022-10-26T06:15:04;9.57;;;1.60;;
2562;SDS011;1291;51.420;6.970;2022-10-26T06:17:34;3.95;;;1.02;;
2562;SDS011;1291;51.420;6.970;2022-10-26T06:20:21;1.73;;;1.08;;
2562;SDS011;1291;51.420;6.970;2022-10-26T06:31:34;3.78;;;1.10;;
2562;SDS011;1291;51.420;6.970;2022-10-26T06:33:59;1.75;;;0.95;;
2562;SDS011;1291;51.420;6.970;2022-10-26T06:36:25;7.35;;;1.23;;
2562;SDS011;1291;51.420;6.970;2022-10-26T06:39:03;3.72;;;0.93;;
2562;SDS011;1291;51.420;6.970;2022-10-26T06:41:35;1.65;;;0.90;;
2562;SDS011;1291;51.420;6.970;2022-10-26T06:44:01;1.35;;;0.90;;
2562;SDS011;1291;51.420;6.970;2022-10-26T06:49:14;4.15;;;0.93;;
2562;SDS011;1291;51.420;6.970;2022-10-26T06:51:48;2.25;;;0.73;;
2562;SDS011;1291;51.420;6.970;2022-10-26T06:57:07;2.42;;;1.00;;
2562;SDS011;1291;51.420;6.970;2022-10-26T06:59:38;2.35;;;1.13;;
2562;SDS011;1291;51.420;6.970;2022-10-26T07:02:11;1.23;;;0.80;;
2562;SDS011;1291;51.420;6.970;2022-10-26T07:04:38;1.40;;;0.90;;
2562;SDS011;1291;51.420;6.970;2022-10-26T07:07:05;0.88;;;0.70;;
2562;SDS011;1291;51.420;6.970;2022-10-26T07:09:30;2.85;;;0.80;;
2562;SDS011;1291;51.420;6.970;2022-10-26T07:11:56;1.73;;;0.88;;
2562;SDS011;1291;51.420;6.970;2022-10-26T07:14:21;2.40;;;0.90;;
2562;SDS011;1291;51.420;6.970;2022-10-26T07:16:47;1.52;;;0.90;;
2562;SDS011;1291;51.420;6.970;2022-10-26T07:19:12;6.93;;;1.65;;
2562;SDS011;1291;51.420;6.970;2022-10-26T07:21:38;6.35;;;1.17;;
2562;SDS011;1291;51.420;6.970;2022-10-26T07:24:03;3.65;;;1.35;;
2562;SDS011;1291;51.420;6.970;2022-10-26T07:26:29;2.78;;;1.10;;
2562;SDS011;1291;51.420;6.970;2022-10-26T07:28:54;3.00;;;1.10;;
2562;SDS011;1291;51.420;6.970;2022-10-26T07:31:20;2.63;;;1.20;;
2562;SDS011;1291;51.420;6.970;2022-10-26T07:33:45;2.53;;;1.00;;
2562;SDS011;1291;51.420;6.970;2022-10-26T07:36:11;3.55;;;0.98;;
2562;SDS011;1291;51.420;6.970;2022-10-26T07:38:37;2.28;;;1.50;;
2562;SDS011;1291;51.420;6.970;2022-10-26T07:41:03;2.20;;;1.00;;
2562;SDS011;1291;51.420;6.970;2022-10-26T07:43:28;2.47;;;0.90;;
2562;SDS011;1291;51.420;6.970;2022-10-26T07:45:54;3.00;;;1.35;;
2562;SDS011;1291;51.420;6.970;2022-10-26T07:48:22;2.55;;;1.23;;
2562;SDS011;1291;51.420;6.970;2022-10-26T07:50:48;4.28;;;1.25;;
2562;SDS011;1291;51.420;6.970;2022-10-26T07:53:13;3.88;;;1.20;;
2562;SDS011;1291;51.420;6.970;2022-10-26T07:55:42;4.53;;;1.42;;
2562;SDS011;1291;51.420;6.970;2022-10-26T07:58:07;5.65;;;1.30;;
2562;SDS011;1291;51.420;6.970;2022-10-26T08:00:32;4.57;;;1.40;;
2562;SDS011;1291;51.420;6.970;2022-10-26T08:02:58;2.42;;;1.13;;
2562;SDS011;1291;51.420;6.970;2022-10-26T08:05:24;4.97;;;1.63;;
2562;SDS011;1291;51.420;6.970;2022-10-26T08:07:49;4.65;;;1.23;;
2562;SDS011;1291;51.420;6.970;2022-10-26T08:10:15;0.95;;;0.90;;
2562;SDS011;1291;51.420;6.970;2022-10-26T08:12:41;5.22;;;1.50;;
2562;SDS011;1291;51.420;6.970;2022-10-26T08:15:07;2.45;;;1.50;;
2562;SDS011;1291;51.420;6.970;2022-10-26T08:17:33;3.92;;;1.33;;
2562;SDS011;1291;51.420;6.970;2022-10-26T08:19:59;4.68;;;1.40;;
2562;SDS011;1291;51.420;6.970;2022-10-26T08:22:25;1.85;;;1.30;;
2562;SDS011;1291;51.420;6.970;2022-10-26T08:24:53;3.55;;;1.33;;
2562;SDS011;1291;51.420;6.970;2022-10-26T08:27:18;3.47;;;1.20;;
2562;SDS011;1291;51.420;6.970;2022-10-26T08:29:44;3.30;;;1.15;;
2562;SDS011;1291;51.420;6.970;2022-10-26T08:32:09;3.05;;;1.58;;
2562;SDS011;1291;51.420;6.970;2022-10-26T08:34:34;1.40;;;1.10;;
2562;SDS011;1291;51.420;6.970;2022-10-26T08:37:00;4.03;;;1.40;;
2562;SDS011;1291;51.420;6.970;2022-10-26T08:39:25;3.10;;;1.30;;
2562;SDS011;1291;51.420;6.970;2022-10-26T08:41:56;5.70;;;1.45;;
2562;SDS011;1291;51.420;6.970;2022-10-26T08:44:35;5.07;;;1.23;;
2562;SDS011;1291;51.420;6.970;2022-10-26T08:47:11;3.70;;;1.23;;
2562;SDS011;1291;51.420;6.970;2022-10-26T08:49:52;2.58;;;1.35;;
2562;SDS011;1291;51.420;6.970;2022-10-26T08:52:21;5.05;;;1.23;;
2562;SDS011;1291;51.420;6.970;2022-10-26T08:54:51;4.50;;;1.50;;
2562;SDS011;1291;51.420;6.970;2022-10-26T08:57:26;5.18;;;1.25;;
2562;SDS011;1291;51.420;6.970;2022-10-26T08:59:56;3.92;;;1.50;;
2562;SDS011;1291;51.420;6.970;2022-10-26T09:02:30;2.17;;;1.20;;
2562;SDS011;1291;51.420;6.970;2022-10-26T09:04:56;2.95;;;1.50;;
2562;SDS011;1291;51.420;6.970;2022-10-26T09:24:31;6.50;;;1.50;;
2562;SDS011;1291;51.420;6.970;2022-10-26T09:29:34;2.72;;;1.70;;
2562;SDS011;1291;51.420;6.970;2022-10-26T09:32:04;5.53;;;1.73;;
2562;SDS011;1291;51.420;6.970;2022-10-26T09:34:38;2.80;;;1.23;;
2562;SDS011;1291;51.420;6.970;2022-10-26T09:42:56;5.72;;;1.50;;
2562;SDS011;1291;51.420;6.970;2022-10-26T09:45:32;4.63;;;1.70;;
2562;SDS011;1291;51.420;6.970;2022-10-26T09:50:43;1.48;;;1.25;;
2562;SDS011;1291;51.420;6.970;2022-10-26T09:53:12;3.53;;;1.92;;
2562;SDS011;1291;51.420;6.970;2022-10-26T09:55:39;4.90;;;1.90;;
2562;SDS011;1291;51.420;6.970;2022-10-26T09:58:15;1.98;;;1.50;;
2562;SDS011;1291;51.420;6.970;2022-10-26T10:00:44;5.35;;;1.60;;
2562;SDS011;1291;51.420;6.970;2022-10-26T10:03:25;3.10;;;1.70;;
2562;SDS011;1291;51.420;6.970;2022-10-26T10:05:52;5.45;;;1.65;;
2562;SDS011;1291;51.420;6.970;2022-10-26T10:08:22;3.28;;;1.85;;
2562;SDS011;1291;51.420;6.970;2022-10-26T10:13:40;3.60;;;1.75;;
2562;SDS011;1291;51.420;6.970;2022-10-26T10:18:36;3.97;;;1.90;;
2562;SDS011;1291;51.420;6.970;2022-10-26T10:21:03;3.40;;;1.90;;
2562;SDS011;1291;51.420;6.970;2022-10-26T10:23:36;3.88;;;1.92;;
2562;SDS011;1291;51.420;6.970;2022-10-26T10:26:12;4.38;;;2.20;;
2562;SDS011;1291;51.420;6.970;2022-10-26T10:28:41;24.45;;;2.80;;
2562;SDS011;1291;51.420;6.970;2022-10-26T10:31:20;9.05;;;2.53;;
2562;SDS011;1291;51.420;6.970;2022-10-26T10:33:47;3.92;;;1.98;;
2562;SDS011;1291;51.420;6.970;2022-10-26T10:36:17;4.03;;;2.10;;
2562;SDS011;1291;51.420;6.970;2022-10-26T10:38:49;5.35;;;2.03;;
2562;SDS011;1291;51.420;6.970;2022-10-26T10:41:17;4.57;;;2.17;;
2562;SDS011;1291;51.420;6.970;2022-10-26T10:43:58;7.93;;;2.13;;
2562;SDS011;1291;51.420;6.970;2022-10-26T10:46:25;3.35;;;1.98;;
2562;SDS011;1291;51.420;6.970;2022-10-26T10:49:00;4.55;;;2.63;;
2562;SDS011;1291;51.420;6.970;2022-10-26T10:51:27;3.58;;;2.20;;
2562;SDS011;1291;51.420;6.970;2022-10-26T10:53:59;6.63;;;2.20;;
2562;SDS011;1291;51.420;6.970;2022-10-26T11:07:53;4.88;;;2.38;;
2562;SDS011;1291;51.420;6.970;2022-10-26T11:10:26;6.45;;;2.25;;
2562;SDS011;1291;51.420;6.970;2022-10-26T11:13:01;5.63;;;2.47;;
2562;SDS011;1291;51.420;6.970;2022-10-26T11:15:35;7.50;;;2.55;;
2562;SDS011;1291;51.420;6.970;2022-10-26T11:20:38;6.80;;;2.50;;
2562;SDS011;1291;51.420;6.970;2022-10-26T11:26:07;5.35;;;2.20;;
2562;SDS011;1291;51.420;6.970;2022-10-26T11:28:53;6.00;;;2.30;;
2562;SDS011;1291;51.420;6.970;2022-10-26T11:31:31;6.20;;;2.25;;
2562;SDS011;1291;51.420;6.970;2022-10-26T11:34:21;4.90;;;2.63;;
2562;SDS011;1291;51.420;6.970;2022-10-26T11:36:55;6.13;;;2.60;;
2562;SDS011;1291;51.420;6.970;2022-10-26T11:39:30;3.33;;;2.58;;
2562;SDS011;1291;51.420;6.970;2022-10-26T11:44:56;6.18;;;2.33;;
2562;SDS011;1291;51.420;6.970;2022-10-26T11:47:41;3.63;;;2.47;;
2562;SDS011;1291;51.420;6.970;2022-10-26T11:52:51;11.23;;;2.75;;
2562;SDS011;1291;51.420;6.970;2022-10-26T11:55:22;4.75;;;2.25;;
2562;SDS011;1291;51.420;6.970;2022-10-26T11:57:47;4.22;;;2.05;;
2562;SDS011;1291;51.420;6.970;2022-10-26T12:00:17;6.00;;;2.35;;
2562;SDS011;1291;51.420;6.970;2022-10-26T12:02:46;5.78;;;2.33;;
2562;SDS011;1291;51.420;6.970;2022-10-26T12:05:41;4.82;;;2.20;;
2562;SDS011;1291;51.420;6.970;2022-10-26T12:08:23;3.53;;;1.73;;
2562;SDS011;1291;51.420;6.970;2022-10-26T12:11:35;3.92;;;2.08;;
2562;SDS011;1291;51.420;6.970;2022-10-26T12:13:57;3.58;;;2.15;;
2562;SDS011;1291;51.420;6.970;2022-10-26T12:19:24;2.35;;;1.23;;
2562;SDS011;1291;51.420;6.970;2022-10-26T12:21:55;1.85;;;1.50;;
2562;SDS011;1291;51.420;6.970;2022-10-26T12:26:51;3.63;;;1.98;;
2562;SDS011;1291;51.420;6.970;2022-10-26T12:29:28;4.38;;;1.58;;
2562;SDS011;1291;51.420;6.970;2022-10-26T12:31:55;4.40;;;1.40;;
2562;SDS011;1291;51.420;6.970;2022-10-26T12:34:22;3.20;;;1.45;;
2562;SDS011;1291;51.420;6.970;2022-10-26T12:41:57;3.95;;;1.60;;
2562;SDS011;1291;51.420;6.970;2022-10-26T12:50:18;2.80;;;1.25;;
2562;SDS011;1291;51.420;6.970;2022-10-26T13:00:54;5.78;;;1.50;;
2562;SDS011;1291;51.420;6.970;2022-10-26T13:09:21;4.20;;;1.67;;
2562;SDS011;1291;51.420;6.970;2022-10-26T13:11:51;4.68;;;1.30;;
2562;SDS011;1291;51.420;6.970;2022-10-26T13:16:55;5.78;;;1.58;;
2562;SDS011;1291;51.420;6.970;2022-10-26T13:20:03;3.35;;;1.63;;
2562;SDS011;1291;51.420;6.970;2022-10-26T13:22:21;2.42;;;1.38;;
2562;SDS011;1291;51.420;6.970;2022-10-26T13:24:55;1.83;;;1.45;;
2562;SDS011;1291;51.420;6.970;2022-10-26T13:32:28;4.22;;;1.33;;
2562;SDS011;1291;51.420;6.970;2022-10-26T13:34:58;2.92;;;1.40;;
2562;SDS011;1291;51.420;6.970;2022-10-26T13:37:26;3.95;;;1.20;;
2562;SDS011;1291;51.420;6.970;2022-10-26T13:39:54;5.05;;;1.52;;
2562;SDS011;1291;51.420;6.970;2022-10-26T13:42:23;14.52;;;3.97;;
2562;SDS011;1291;51.420;6.970;2022-10-26T13:48:09;7.15;;;2.75;;
2562;SDS011;1291;51.420;6.970;2022-10-26T13:50:51;4.07;;;1.60;;
2562;SDS011;1291;51.420;6.970;2022-10-26T13:56:11;2.60;;;1.60;;
2562;SDS011;1291;51.420;6.970;2022-10-26T13:58:41;5.93;;;1.67;;
2562;SDS011;1291;51.420;6.970;2022-10-26T14:01:23;1.80;;;1.48;;
2562;SDS011;1291;51.420;6.970;2022-10-26T14:03:50;4.45;;;1.50;;
2562;SDS011;1291;51.420;6.970;2022-10-26T14:06:35;1.35;;;1.17;;
2562;SDS011;1291;51.420;6.970;2022-10-26T14:09:03;3.00;;;1.30;;
2562;SDS011;1291;51.420;6.970;2022-10-26T14:11:39;2.03;;;1.27;;
2562;SDS011;1291;51.420;6.970;2022-10-26T14:14:29;2.55;;;1.30;;
2562;SDS011;1291;51.420;6.970;2022-10-26T14:17:00;4.30;;;1.10;;
2562;SDS011;1291;51.420;6.970;2022-10-26T14:19:30;5.18;;;1.20;;
2562;SDS011;1291;51.420;6.970;2022-10-26T14:21:56;2.55;;;1.45;;
2562;SDS011;1291;51.420;6.970;2022-10-26T14:24:25;3.85;;;1.13;;
2562;SDS011;1291;51.420;6.970;2022-10-26T14:26:52;2.63;;;1.10;;
2562;SDS011;1291;51.420;6.970;2022-10-26T14:29:19;2.78;;;1.23;;
2562;SDS011;1291;51.420;6.970;2022-10-26T14:31:45;2.05;;;1.13;;
2562;SDS011;1291;51.420;6.970;2022-10-26T14:34:14;6.85;;;1.73;;
2562;SDS011;1291;51.420;6.970;2022-10-26T14:36:44;2.55;;;1.20;;
2562;SDS011;1291;51.420;6.970;2022-10-26T14:40:02;1.13;;;0.98;;
2562;SDS011;1291;51.420;6.970;2022-10-26T14:44:55;4.82;;;1.27;;
2562;SDS011;1291;51.420;6.970;2022-10-26T14:47:23;1.00;;;1.00;;
2562;SDS011;1291;51.420;6.970;2022-10-26T14:49:51;2.33;;;1.00;;
2562;SDS011;1291;51.420;6.970;2022-10-26T14:52:20;3.20;;;1.13;;
2562;SDS011;1291;51.420;6.970;2022-10-26T14:57:47;2.92;;;1.08;;
2562;SDS011;1291;51.420;6.970;2022-10-26T15:00:20;2.78;;;1.10;;
2562;SDS011;1291;51.420;6.970;2022-10-26T15:02:46;2.53;;;0.90;;
2562;SDS011;1291;51.420;6.970;2022-10-26T15:07:52;4.97;;;1.40;;
2562;SDS011;1291;51.420;6.970;2022-10-26T15:15:55;3.28;;;1.33;;
2562;SDS011;1291;51.420;6.970;2022-10-26T15:18:39;1.42;;;1.10;;
2562;SDS011;1291;51.420;6.970;2022-10-26T15:21:20;1.92;;;1.10;;
2562;SDS011;1291;51.420;6.970;2022-10-26T15:23:49;1.95;;;0.95;;
2562;SDS011;1291;51.420;6.970;2022-10-26T15:26:15;3.15;;;1.48;;
2562;SDS011;1291;51.420;6.970;2022-10-26T15:28:43;2.15;;;1.50;;
2562;SDS011;1291;51.420;6.970;2022-10-26T15:38:49;2.40;;;1.33;;
2562;SDS011;1291;51.420;6.970;2022-10-26T15:43:53;6.72;;;1.48;;
2562;SDS011;1291;51.420;6.970;2022-10-26T15:46:23;3.05;;;1.23;;
2562;SDS011;1291;51.420;6.970;2022-10-26T15:48:54;3.75;;;1.35;;
2562;SDS011;1291;51.420;6.970;2022-10-26T15:51:21;7.25;;;1.45;;
2562;SDS011;1291;51.420;6.970;2022-10-26T15:53:46;3.42;;;1.40;;
2562;SDS011;1291;51.420;6.970;2022-10-26T15:56:13;4.30;;;1.42;;
2562;SDS011;1291;51.420;6.970;2022-10-26T15:58:44;4.00;;;1.40;;
2562;SDS011;1291;51.420;6.970;2022-10-26T16:01:17;2.60;;;1.20;;
2562;SDS011;1291;51.420;6.970;2022-10-26T16:03:45;3.92;;;1.60;;
2562;SDS011;1291;51.420;6.970;2022-10-26T16:06:15;3.33;;;1.10;;
2562;SDS011;1291;51.420;6.970;2022-10-26T16:08:44;3.10;;;1.15;;
2562;SDS011;1291;51.420;6.970;2022-10-26T16:11:15;2.50;;;1.48;;
2562;SDS011;1291;51.420;6.970;2022-10-26T16:13:40;3.67;;;1.27;;
2562;SDS011;1291;51.420;6.970;2022-10-26T16:16:12;5.50;;;1.10;;
2562;SDS011;1291;51.420;6.970;2022-10-26T16:18:39;2.17;;;1.02;;
2562;SDS011;1291;51.420;6.970;2022-10-26T16:21:05;1.45;;;0.90;;
2562;SDS011;1291;51.420;6.970;2022-10-26T16:23:35;7.05;;;1.20;;
2562;SDS011;1291;51.420;6.970;2022-10-26T16:26:02;2.58;;;1.35;;
2562;SDS011;1291;51.420;6.970;2022-10-26T16:28:28;7.70;;;1.58;;
2562;SDS011;1291;51.420;6.970;2022-10-26T16:31:01;2.88;;;1.52;;
2562;SDS011;1291;51.420;6.970;2022-10-26T16:33:28;3.55;;;1.30;;
2562;SDS011;1291;51.420;6.970;2022-10-26T16:35:54;4.50;;;1.17;;
2562;SDS011;1291;51.420;6.970;2022-10-26T16:38:23;2.45;;;1.55;;
2562;SDS011;1291;51.420;6.970;2022-10-26T16:40:48;2.63;;;1.30;;
2562;SDS011;1291;51.420;6.970;2022-10-26T16:43:14;2.97;;;1.10;;
2562;SDS011;1291;51.420;6.970;2022-10-26T16:45:43;5.85;;;1.50;;
2562;SDS011;1291;51.420;6.970;2022-10-26T16:48:08;2.78;;;1.48;;
2562;SDS011;1291;51.420;6.970;2022-10-26T16:50:39;1.65;;;1.20;;
2562;SDS011;1291;51.420;6.970;2022-10-26T16:53:04;2.15;;;1.30;;
2562;SDS011;1291;51.420;6.970;2022-10-26T16:55:30;4.28;;;1.50;;
2562;SDS011;1291;51.420;6.970;2022-10-26T16:57:56;3.25;;;1.55;;
2562;SDS011;1291;51.420;6.970;2022-10-26T17:00:21;3.25;;;1.45;;
2562;SDS011;1291;51.420;6.970;2022-10-26T17:02:47;3.25;;;1.52;;
2562;SDS011;1291;51.420;6.970;2022-10-26T17:05:12;2.25;;;1.13;;
2562;SDS011;1291;51.420;6.970;2022-10-26T17:07:37;2.95;;;1.63;;
2562;SDS011;1291;51.420;6.970;2022-10-26T17:10:03;1.80;;;1.60;;
2562;SDS011;1291;51.420;6.970;2022-10-26T17:12:29;3.70;;;1.38;;
2562;SDS011;1291;51.420;6.970;2022-10-26T17:14:54;3.85;;;1.67;;
2562;SDS011;1291;51.420;6.970;2022-10-26T17:17:22;1.55;;;1.05;;
2562;SDS011;1291;51.420;6.970;2022-10-26T17:19:48;4.93;;;1.30;;
2562;SDS011;1291;51.420;6.970;2022-10-26T17:22:13;6.32;;;1.25;;
2562;SDS011;1291;51.420;6.970;2022-10-26T17:24:38;2.60;;;1.27;;
2562;SDS011;1291;51.420;6.970;2022-10-26T17:27:04;4.65;;;1.60;;
2562;SDS011;1291;51.420;6.970;2022-10-26T17:29:29;1.67;;;1.00;;
2562;SDS011;1291;51.420;6.970;2022-10-26T17:31:55;5.35;;;1.25;;
2562;SDS011;1291;51.420;6.970;2022-10-26T17:34:20;3.17;;;1.40;;
2562;SDS011;1291;51.420;6.970;2022-10-26T17:36:46;3.60;;;1.30;;
2562;SDS011;1291;51.420;6.970;2022-10-26T17:39:11;2.50;;;1.17;;
2562;SDS011;1291;51.420;6.970;2022-10-26T17:41:37;5.60;;;1.50;;
2562;SDS011;1291;51.420;6.970;2022-10-26T17:44:02;2.22;;;1.05;;
2562;SDS011;1291;51.420;6.970;2022-10-26T17:46:28;3.95;;;1.23;;
2562;SDS011;1291;51.420;6.970;2022-10-26T17:48:57;4.65;;;1.40;;
2562;SDS011;1291;51.420;6.970;2022-10-26T17:51:24;4.75;;;1.45;;
2562;SDS011;1291;51.420;6.970;2022-10-26T17:53:51;2.65;;;1.60;;
2562;SDS011;1291;51.420;6.970;2022-10-26T17:56:18;2.80;;;1.38;;
2562;SDS011;1291;51.420;6.970;2022-10-26T17:58:52;4.38;;;1.42;;
2562;SDS011;1291;51.420;6.970;2022-10-26T18:01:25;1.70;;;1.25;;
2562;SDS011;1291;51.420;6.970;2022-10-26T18:03:53;4.35;;;1.83;;
2562;SDS011;1291;51.420;6.970;2022-10-26T18:06:19;2.17;;;1.30;;
2562;SDS011;1291;51.420;6.970;2022-10-26T18:08:45;3.08;;;1.60;;
2562;SDS011;1291;51.420;6.970;2022-10-26T18:11:12;2.58;;;1.52;;
2562;SDS011;1291;51.420;6.970;2022-10-26T18:13:42;5.22;;;1.58;;
2562;SDS011;1291;51.420;6.970;2022-10-26T18:16:09;2.22;;;1.60;;
2562;SDS011;1291;51.420;6.970;2022-10-26T18:18:37;8.73;;;2.50;;
2562;SDS011;1291;51.420;6.970;2022-10-26T18:21:08;3.80;;;1.40;;
2562;SDS011;1291;51.420;6.970;2022-10-26T18:23:35;3.38;;;1.70;;